METAR Data
IDs: Format: Raw Decoded Include TAF

Data at: 0829 UTC 18 Sep 2021

EDVK 180820Z 04005KT 010V080 7000 OVC007 13/12 Q1018